Goianesia, Brazil
Current Conditions -  °F | °C
As of 10:00 AM on Monday 22 Dec 2014 (Local Time) from SBAN Reporting Station
Broken Clouds Broken Clouds  
Wind Chill: 70°   Ceiling: 500
Heat Index: 70°   Visibility: 6mi
Dew Point: 64°   Wind: 5mph
Humidity: 83%   Direction: 300°WNW
Pressure: 30.15"   Gusts: NA
Location:  15.32°S, 49.12°W
Report Text: SBAN 221200Z 30004KT 9999 BKN005 BKN080 21/18 Q1021
Loading
Personal Weather Stations






























Interactive Weather Map New forecast layout! Learn more

10-Day Weather Forecast

Advertisements
Track Severe Weather on mobile